Time;durP1;ratioP1;P1;durP2;ratioP2;P2;SDS_P1;SDS_P2;PMS_P1;PMS_P2;Temp;Humidity;BMP_temperature;BMP_pressure;BME280_temperature;BME280_humidity;BME280_pressure;Samples;Min_cycle;Max_cycle;Signal;HPM_P1;HPM_P2
2021/12/24 00:01:54;;;;;;;75.65;28.42;;;6.30;84.10;;;;;;4862709;29;20082;-76
2021/12/24 00:04:21;;;;;;;60.58;26.00;;;6.30;84.20;;;;;;4893204;29;20088;-76
2021/12/24 00:06:48;;;;;;;68.80;28.23;;;6.40;84.40;;;;;;4898618;29;20044;-75
2021/12/24 00:09:21;;;;;;;61.60;25.92;;;6.40;84.40;;;;;;4897530;29;20504;-75
2021/12/24 00:11:50;;;;;;;65.97;26.98;;;6.50;84.60;;;;;;4916153;29;20505;-75
2021/12/24 00:14:17;;;;;;;66.75;27.20;;;6.50;84.60;;;;;;4876772;29;20040;-75
2021/12/24 00:16:48;;;;;;;56.35;25.52;;;6.50;84.60;;;;;;4894097;29;20099;-76
2021/12/24 00:19:35;;;;;;;62.03;25.55;;;6.60;84.70;;;;;;4874695;29;20057;-77
2021/12/24 00:35:36;;;;;;;67.93;25.38;;;6.80;85.00;;;;;;4900472;29;20377;-77
2021/12/24 00:38:05;;;;;;;67.38;25.33;;;6.80;85.00;;;;;;4898749;29;20049;-77
2021/12/24 00:40:40;;;;;;;69.93;26.17;;;6.80;85.10;;;;;;4887712;29;20052;-77
2021/12/24 00:43:06;;;;;;;67.55;24.88;;;6.90;85.20;;;;;;4907794;29;20041;-77
2021/12/24 00:45:35;;;;;;;54.40;23.08;;;6.90;85.10;;;;;;4881445;29;20475;-77
2021/12/24 00:48:02;;;;;;;48.42;22.30;;;6.90;85.20;;;;;;4910005;29;20053;-77
2021/12/24 00:50:48;;;;;;;49.92;22.30;;;7.00;85.20;;;;;;4867286;29;20128;-77
2021/12/24 00:56:02;;;;;;;42.28;19.75;;;7.00;85.20;;;;;;4857960;29;20169;-77
2021/12/24 00:58:28;;;;;;;47.03;20.70;;;7.00;85.20;;;;;;4872330;29;20050;-78
2021/12/24 01:00:54;;;;;;;40.42;19.48;;;7.00;85.20;;;;;;4847494;29;20113;-78
2021/12/24 01:03:19;;;;;;;50.10;20.20;;;7.00;85.20;;;;;;4862193;29;20049;-78
2021/12/24 01:05:45;;;;;;;36.45;17.58;;;7.00;85.20;;;;;;4846720;29;20080;-78
2021/12/24 01:08:13;;;;;;;32.88;16.77;;;7.00;85.20;;;;;;4868750;29;20059;-78
2021/12/24 01:10:46;;;;;;;29.77;16.27;;;7.10;85.30;;;;;;4861575;29;20395;-77
2021/12/24 01:13:12;;;;;;;32.80;16.98;;;7.10;85.40;;;;;;4847196;29;20068;-78
2021/12/24 01:15:49;;;;;;;30.02;14.93;;;7.10;85.30;;;;;;4845579;29;20056;-78
2021/12/24 01:21:05;;;;;;;31.08;14.60;;;7.10;85.30;;;;;;4845838;29;20082;-77
2021/12/24 01:23:44;;;;;;;28.92;14.07;;;7.10;85.30;;;;;;4861735;29;20065;-77
2021/12/24 01:26:14;;;;;;;33.00;15.20;;;7.20;85.40;;;;;;4863545;29;20067;-77
2021/12/24 01:44:34;;;;;;;25.90;13.55;;;7.30;85.60;;;;;;4910174;29;20436;-77
2021/12/24 01:47:02;;;;;;;23.25;12.48;;;7.30;85.60;;;;;;4891722;29;20044;-77
2021/12/24 01:49:28;;;;;;;20.67;11.32;;;7.30;85.60;;;;;;4887578;29;20045;-78
2021/12/24 01:51:55;;;;;;;21.67;12.13;;;7.40;85.60;;;;;;4886617;29;20460;-78
2021/12/24 01:54:21;;;;;;;21.30;11.35;;;7.40;86.00;;;;;;4883015;29;20478;-77
2021/12/24 01:56:47;;;;;;;20.35;11.48;;;7.40;85.60;;;;;;4882565;29;20069;-77
2021/12/24 01:59:13;;;;;;;23.13;12.05;;;7.40;85.70;;;;;;4910031;29;20056;-78
2021/12/24 02:01:39;;;;;;;22.67;11.50;;;7.40;85.70;;;;;;4871975;29;20057;-78
2021/12/24 02:04:04;;;;;;;19.80;11.02;;;7.50;85.70;;;;;;4891570;29;20104;-78
2021/12/24 02:06:30;;;;;;;22.08;11.75;;;7.50;85.70;;;;;;4881378;29;20044;-78
2021/12/24 02:08:56;;;;;;;20.80;11.07;;;7.60;85.80;;;;;;4900518;29;20581;-77
2021/12/24 02:11:23;;;;;;;19.83;11.30;;;7.50;85.70;;;;;;4865287;29;20135;-78
2021/12/24 02:13:49;;;;;;;18.90;11.27;;;7.60;85.80;;;;;;4901005;29;20064;-78
2021/12/24 02:30:02;;;;;;;24.55;13.05;;;7.70;85.90;;;;;;4859865;29;19924;-78
2021/12/24 02:32:28;;;;;;;23.88;12.13;;;7.70;86.00;;;;;;4861266;29;20130;-78
2021/12/24 02:34:53;;;;;;;24.70;13.30;;;7.70;86.00;;;;;;4861249;29;20042;-78
2021/12/24 02:37:19;;;;;;;24.80;12.85;;;7.70;86.00;;;;;;4858994;29;20057;-77
2021/12/24 02:39:45;;;;;;;29.95;14.00;;;7.80;86.00;;;;;;4867556;29;20050;-78
2021/12/24 02:42:21;;;;;;;25.38;12.93;;;7.80;86.00;;;;;;4860176;29;20061;-77
2021/12/24 02:44:50;;;;;;;27.75;13.57;;;7.80;86.00;;;;;;4860020;29;20053;-77
2021/12/24 02:54:56;;;;;;;22.88;11.65;;;7.90;86.30;;;;;;4861566;29;20057;-78
2021/12/24 02:57:26;;;;;;;26.30;11.98;;;7.90;86.20;;;;;;4835145;29;20050;-78
2021/12/24 03:00:01;;;;;;;24.95;11.15;;;7.90;86.20;;;;;;4901989;29;20080;-78
2021/12/24 03:02:32;;;;;;;21.95;9.98;;;8.00;86.30;;;;;;4863758;29;20120;-77
2021/12/24 03:04:58;;;;;;;23.98;11.10;;;8.00;86.40;;;;;;4896453;29;20047;-78
2021/12/24 03:07:24;;;;;;;23.88;11.43;;;8.00;86.40;;;;;;4866722;29;20055;-77
2021/12/24 03:09:50;;;;;;;22.38;10.75;;;8.10;86.40;;;;;;4887481;29;20412;-78
2021/12/24 03:12:16;;;;;;;20.80;9.88;;;8.00;86.30;;;;;;4881850;29;20052;-78
2021/12/24 03:14:42;;;;;;;18.80;9.88;;;8.10;86.40;;;;;;4898291;29;20095;-78
2021/12/24 03:17:12;;;;;;;22.05;9.73;;;8.10;86.40;;;;;;4882336;29;20369;-78
2021/12/24 03:19:38;;;;;;;21.65;10.50;;;8.10;86.40;;;;;;4910288;29;20082;-77
2021/12/24 03:22:34;;;;;;;15.00;8.40;;;8.10;86.40;;;;;;4888718;29;20049;-77
2021/12/24 03:24:51;;;;;;;19.30;10.20;;;8.10;86.50;;;;;;4905945;29;20060;-78
2021/12/24 03:27:16;;;;;;;19.88;11.32;;;8.10;86.40;;;;;;4907584;29;20071;-78
2021/12/24 03:29:42;;;;;;;29.20;13.88;;;8.20;86.50;;;;;;4905715;29;20088;-78
2021/12/24 03:32:08;;;;;;;31.35;15.35;;;8.10;86.40;;;;;;4878547;29;20045;-77
2021/12/24 03:34:34;;;;;;;26.33;14.20;;;8.20;86.50;;;;;;4894427;29;20484;-78
2021/12/24 03:37:01;;;;;;;31.98;16.50;;;8.20;86.50;;;;;;4886530;29;20033;-77
2021/12/24 03:39:27;;;;;;;42.10;16.75;;;8.20;86.50;;;;;;4890441;29;20048;-77
2021/12/24 03:41:53;;;;;;;31.48;17.00;;;8.20;86.50;;;;;;4901069;29;20127;-77
2021/12/24 03:44:19;;;;;;;31.73;16.10;;;8.20;86.90;;;;;;4895172;29;20113;-77
2021/12/24 03:46:59;;;;;;;34.78;18.52;;;8.20;86.50;;;;;;4880124;29;20057;-77
2021/12/24 03:52:19;;;;;;;36.72;18.92;;;8.30;86.50;;;;;;4887608;29;20056;-77
2021/12/24 03:54:56;;;;;;;37.83;18.73;;;8.30;86.50;;;;;;4894694;29;20048;-77
2021/12/24 03:57:34;;;;;;;49.50;21.77;;;8.30;86.40;;;;;;4898709;29;20064;-78
2021/12/24 04:00:13;;;;;;;41.25;20.13;;;8.30;86.50;;;;;;4897446;29;20048;-77
2021/12/24 04:02:40;;;;;;;41.17;20.02;;;8.30;86.50;;;;;;4898665;29;20053;-77
2021/12/24 04:05:06;;;;;;;43.78;19.77;;;8.30;86.40;;;;;;4905975;29;20077;-77
2021/12/24 04:07:31;;;;;;;52.47;20.38;;;8.30;86.40;;;;;;4900684;29;20526;-77
2021/12/24 04:10:08;;;;;;;44.60;19.63;;;8.30;86.30;;;;;;4879420;29;20051;-77
2021/12/24 04:12:34;;;;;;;46.60;20.05;;;8.30;86.30;;;;;;4912095;29;20048;-77
2021/12/24 04:15:01;;;;;;;42.55;20.20;;;8.30;86.30;;;;;;4903084;29;20036;-77
2021/12/24 04:17:31;;;;;;;49.92;21.52;;;8.40;86.30;;;;;;4891238;29;20041;-77
2021/12/24 04:25:26;;;;;;;54.63;20.60;;;8.40;86.30;;;;;;4910110;29;20059;-77
2021/12/24 04:27:53;;;;;;;50.13;20.13;;;8.40;86.20;;;;;;4916996;29;20484;-77
2021/12/24 04:30:24;;;;;;;42.92;19.02;;;8.40;86.20;;;;;;4896261;29;20116;-77
2021/12/24 04:51:27;;;;;;;45.70;19.45;;;8.40;86.00;;;;;;4911549;29;20059;-77
2021/12/24 05:10:07;;;;;;;43.90;18.90;;;8.30;85.90;;;;;;4881679;29;20061;-77
2021/12/24 05:12:34;;;;;;;41.42;18.98;;;8.40;85.90;;;;;;4890648;29;20084;-77
2021/12/24 05:15:02;;;;;;;43.35;19.75;;;8.50;86.00;;;;;;4883366;29;20117;-77
2021/12/24 05:17:46;;;;;;;40.78;20.08;;;8.50;86.00;;;;;;4907305;29;20050;-78
2021/12/24 05:22:56;;;;;;;30.40;17.38;;;8.50;85.90;;;;;;4889120;29;20127;-77
2021/12/24 05:25:22;;;;;;;40.35;17.55;;;8.50;85.90;;;;;;4886109;29;20135;-77
2021/12/24 05:27:51;;;;;;;35.50;16.33;;;8.50;85.90;;;;;;4898107;29;20049;-77
2021/12/24 05:30:18;;;;;;;35.55;16.33;;;8.50;85.90;;;;;;4872883;29;20077;-77
2021/12/24 05:32:43;;;;;;;40.38;15.52;;;8.50;85.90;;;;;;4907674;29;20060;-77
2021/12/24 05:35:09;;;;;;;32.65;15.45;;;8.50;85.90;;;;;;4899247;29;20476;-77
2021/12/24 05:37:35;;;;;;;33.05;14.32;;;8.50;85.90;;;;;;4898406;29;20060;-76
2021/12/24 05:40:01;;;;;;;29.52;15.05;;;8.50;85.90;;;;;;4889473;29;20603;-77
2021/12/24 05:42:31;;;;;;;32.58;15.27;;;8.50;85.90;;;;;;4907990;29;20116;-77
2021/12/24 05:45:02;;;;;;;39.90;15.30;;;8.50;85.80;;;;;;4882061;29;20059;-78
2021/12/24 05:47:28;;;;;;;35.22;15.02;;;8.60;85.90;;;;;;4880301;29;20081;-77
2021/12/24 05:49:54;;;;;;;44.13;15.80;;;8.60;85.90;;;;;;4884880;29;20032;-77
2021/12/24 05:52:20;;;;;;;29.58;12.80;;;8.60;85.90;;;;;;4901929;29;20048;-78
2021/12/24 05:54:45;;;;;;;31.60;14.00;;;8.60;85.90;;;;;;4917365;29;20055;-77
2021/12/24 05:57:11;;;;;;;33.03;14.32;;;8.60;85.90;;;;;;4880799;29;20041;-77
2021/12/24 05:59:36;;;;;;;33.38;13.18;;;8.60;85.80;;;;;;4865875;29;20056;-77
2021/12/24 06:02:02;;;;;;;35.58;13.63;;;8.60;85.80;;;;;;4895277;29;20053;-77
2021/12/24 06:04:28;;;;;;;33.92;13.93;;;8.60;85.90;;;;;;4879606;29;20077;-77
2021/12/24 06:06:54;;;;;;;31.67;12.98;;;8.60;85.80;;;;;;4900164;29;20040;-77
2021/12/24 06:09:19;;;;;;;35.22;12.90;;;8.60;85.80;;;;;;4885821;29;20051;-77
2021/12/24 06:11:45;;;;;;;37.00;13.43;;;8.60;85.80;;;;;;4894841;29;20048;-77
2021/12/24 06:14:12;;;;;;;36.85;13.18;;;8.60;85.80;;;;;;4913222;29;20041;-77
2021/12/24 06:16:47;;;;;;;28.15;12.75;;;8.60;85.70;;;;;;4889211;29;20040;-77
2021/12/24 06:19:14;;;;;;;34.25;12.80;;;8.60;85.80;;;;;;4899415;29;20051;-76
2021/12/24 06:21:40;;;;;;;35.30;11.65;;;8.60;85.70;;;;;;4892169;29;20522;-77
2021/12/24 06:24:05;;;;;;;35.35;11.90;;;8.60;85.70;;;;;;4918809;29;20047;-78
2021/12/24 06:26:31;;;;;;;30.88;11.88;;;8.60;85.70;;;;;;4889599;29;20087;-77
2021/12/24 06:28:57;;;;;;;33.40;11.05;;;8.60;85.60;;;;;;4918896;29;20059;-76
2021/12/24 06:31:22;;;;;;;27.80;10.57;;;8.60;85.60;;;;;;4887415;29;20107;-77
2021/12/24 06:33:48;;;;;;;28.42;9.63;;;8.60;85.60;;;;;;4918702;29;20399;-77
2021/12/24 06:36:14;;;;;;;34.10;11.48;;;8.60;85.60;;;;;;4912908;29;20147;-76
2021/12/24 06:38:39;;;;;;;36.85;10.80;;;8.60;85.50;;;;;;4918558;29;20042;-76
2021/12/24 06:41:05;;;;;;;31.00;10.93;;;8.60;85.50;;;;;;4912013;29;20068;-77
2021/12/24 06:43:31;;;;;;;27.35;10.35;;;8.60;85.50;;;;;;4896880;29;20486;-77
2021/12/24 06:45:57;;;;;;;36.17;10.13;;;8.60;85.50;;;;;;4886885;29;20077;-77
2021/12/24 06:48:23;;;;;;;23.02;8.80;;;8.60;85.50;;;;;;4918236;29;20094;-77
2021/12/24 06:50:50;;;;;;;29.35;10.77;;;8.60;85.50;;;;;;4903049;29;20064;-77
2021/12/24 06:53:16;;;;;;;29.90;8.93;;;8.60;85.50;;;;;;4900925;29;20056;-77
2021/12/24 06:55:41;;;;;;;28.58;9.65;;;8.60;85.40;;;;;;4898402;29;20047;-77
2021/12/24 06:58:07;;;;;;;22.92;9.07;;;8.60;85.50;;;;;;4871623;29;20064;-77
2021/12/24 07:00:34;;;;;;;19.85;9.27;;;8.60;85.40;;;;;;4880005;29;20053;-77
2021/12/24 07:02:59;;;;;;;22.48;8.90;;;8.60;85.40;;;;;;4911517;29;20551;-76
2021/12/24 07:05:25;;;;;;;16.75;7.88;;;8.60;85.30;;;;;;4894252;29;20072;-77
2021/12/24 07:07:51;;;;;;;23.38;9.40;;;8.60;85.30;;;;;;4892835;29;20045;-77
2021/12/24 07:10:17;;;;;;;23.00;8.18;;;8.60;85.30;;;;;;4895387;29;20118;-77
2021/12/24 07:12:42;;;;;;;19.70;8.27;;;8.60;85.20;;;;;;4911948;29;20052;-77
2021/12/24 07:15:09;;;;;;;23.48;7.90;;;8.60;85.20;;;;;;4917916;29;20047;-77
2021/12/24 07:17:34;;;;;;;21.25;7.95;;;8.60;85.10;;;;;;4884911;29;20071;-77
2021/12/24 07:20:00;;;;;;;21.38;7.38;;;8.60;85.10;;;;;;4891775;29;20507;-77
2021/12/24 07:22:26;;;;;;;20.02;7.15;;;8.60;85.00;;;;;;4891940;29;20524;-77
2021/12/24 07:24:51;;;;;;;20.55;7.88;;;8.60;85.00;;;;;;4892381;29;20134;-77
2021/12/24 07:27:19;;;;;;;25.33;7.53;;;8.60;84.90;;;;;;4913550;29;20040;-77
2021/12/24 07:29:44;;;;;;;18.60;7.40;;;8.60;84.90;;;;;;4894060;29;20060;-77
2021/12/24 07:32:10;;;;;;;17.13;6.45;;;8.60;84.90;;;;;;4891806;29;20165;-77
2021/12/24 07:34:36;;;;;;;18.08;6.60;;;8.60;84.90;;;;;;4877371;29;20048;-77
2021/12/24 07:37:02;;;;;;;23.27;7.00;;;8.50;84.70;;;;;;4908729;29;20087;-77
2021/12/24 07:39:27;;;;;;;21.13;6.88;;;8.60;84.80;;;;;;4887249;29;20148;-77
2021/12/24 07:41:53;;;;;;;19.92;5.95;;;8.60;84.70;;;;;;4885681;29;20045;-77
2021/12/24 07:44:19;;;;;;;20.75;6.65;;;8.60;84.70;;;;;;4900641;29;20095;-77
2021/12/24 07:46:50;;;;;;;20.48;6.57;;;8.60;84.70;;;;;;4893422;29;20088;-76
2021/12/24 07:49:32;;;;;;;27.35;6.70;;;8.60;84.60;;;;;;4888822;29;20091;-76
2021/12/24 07:54:26;;;;;;;20.73;6.30;;;8.60;84.60;;;;;;4888777;29;20112;-77
2021/12/24 07:56:52;;;;;;;22.35;5.80;;;8.60;84.60;;;;;;4895292;29;20056;-77
2021/12/24 07:59:18;;;;;;;26.10;6.43;;;8.60;84.60;;;;;;4914300;29;20056;-77
2021/12/24 08:01:45;;;;;;;21.00;6.38;;;8.60;84.50;;;;;;4870687;29;20186;-77
2021/12/24 08:04:12;;;;;;;21.90;6.72;;;8.60;84.50;;;;;;4904376;29;20092;-77
2021/12/24 08:06:37;;;;;;;21.02;6.28;;;8.60;84.60;;;;;;4881382;29;20404;-76
2021/12/24 08:09:07;;;;;;;28.90;7.00;;;8.60;84.60;;;;;;4910120;29;20047;-77
2021/12/24 08:11:33;;;;;;;29.48;8.05;;;8.60;84.50;;;;;;4899478;29;20076;-76
2021/12/24 08:14:01;;;;;;;24.88;6.47;;;8.60;84.50;;;;;;4906728;29;20147;-76
2021/12/24 08:16:27;;;;;;;23.38;6.63;;;8.60;84.50;;;;;;4877647;29;20049;-75
2021/12/24 08:18:53;;;;;;;28.35;7.47;;;8.60;84.50;;;;;;4908023;29;20044;-75
2021/12/24 08:21:19;;;;;;;27.48;6.25;;;8.60;84.50;;;;;;4876483;29;20382;-77
2021/12/24 08:23:46;;;;;;;26.15;6.32;;;8.60;84.40;;;;;;4901183;29;20051;-76
2021/12/24 08:26:13;;;;;;;24.05;5.38;;;8.60;84.40;;;;;;4874697;29;20401;-76
2021/12/24 08:28:39;;;;;;;26.00;7.32;;;8.70;84.50;;;;;;4896605;29;20403;-76
2021/12/24 08:31:05;;;;;;;19.10;5.82;;;8.70;84.40;;;;;;4885914;29;20053;-76
2021/12/24 08:33:34;;;;;;;13.60;5.18;;;8.60;84.70;;;;;;4882363;29;20056;-75
2021/12/24 08:36:00;;;;;;;29.17;6.32;;;8.60;84.40;;;;;;4880140;29;20059;-76
2021/12/24 08:38:25;;;;;;;19.85;6.43;;;8.60;84.30;;;;;;4912040;29;20519;-76
2021/12/24 08:40:51;;;;;;;21.05;5.70;;;8.70;84.30;;;;;;4917113;29;20044;-76
2021/12/24 08:43:17;;;;;;;19.20;5.05;;;8.70;84.30;;;;;;4895083;29;20436;-76
2021/12/24 08:45:42;;;;;;;22.15;5.20;;;8.60;84.30;;;;;;4899618;29;20044;-76
2021/12/24 08:48:08;;;;;;;16.95;5.38;;;8.60;84.30;;;;;;4895906;29;20184;-76
2021/12/24 08:50:34;;;;;;;16.65;4.97;;;8.60;84.30;;;;;;4872285;29;20206;-77
2021/12/24 08:52:59;;;;;;;21.00;4.97;;;8.60;84.30;;;;;;4886438;29;20059;-77
2021/12/24 08:55:25;;;;;;;22.98;5.10;;;8.60;84.30;;;;;;4895259;29;20099;-76
2021/12/24 08:57:51;;;;;;;21.38;5.55;;;8.60;84.30;;;;;;4905034;29;20071;-82
2021/12/24 09:00:19;;;;;;;24.13;4.63;;;8.60;84.30;;;;;;4889170;29;20059;-76
2021/12/24 09:02:45;;;;;;;22.40;5.03;;;8.70;84.40;;;;;;4899240;29;20142;-76
2021/12/24 09:05:12;;;;;;;20.50;5.97;;;8.70;84.40;;;;;;4900369;29;20127;-76
2021/12/24 09:07:38;;;;;;;20.60;4.88;;;8.70;84.40;;;;;;4914616;29;20059;-76
2021/12/24 09:10:04;;;;;;;20.27;5.68;;;8.70;84.40;;;;;;4884450;29;20049;-76
2021/12/24 09:12:30;;;;;;;26.48;6.72;;;8.70;84.40;;;;;;4889218;29;20053;-77
2021/12/24 09:14:55;;;;;;;23.23;6.85;;;8.70;84.80;;;;;;4915881;29;20391;-75
2021/12/24 09:17:22;;;;;;;17.55;6.53;;;8.70;84.30;;;;;;4913442;29;20040;-76
2021/12/24 09:19:50;;;;;;;24.77;6.32;;;8.70;84.40;;;;;;4907957;29;20076;-76
2021/12/24 09:22:18;;;;;;;26.40;5.88;;;8.70;84.40;;;;;;4881989;29;20533;-76
2021/12/24 09:24:49;;;;;;;21.77;6.30;;;8.70;84.40;;;;;;4908653;29;20048;-76
2021/12/24 09:27:15;;;;;;;21.90;5.85;;;8.70;84.40;;;;;;4915286;29;20049;-76
2021/12/24 09:29:42;;;;;;;19.65;5.63;;;8.80;84.50;;;;;;4898500;29;20037;-76
2021/12/24 09:32:09;;;;;;;20.17;5.80;;;8.70;84.40;;;;;;4904623;29;20050;-76
2021/12/24 09:34:34;;;;;;;23.35;6.07;;;8.70;84.40;;;;;;4898158;29;20123;-76
2021/12/24 09:37:00;;;;;;;21.55;5.30;;;8.80;84.50;;;;;;4899924;29;20135;-75
2021/12/24 09:39:25;;;;;;;20.95;5.57;;;8.80;84.50;;;;;;4881852;29;20129;-76
2021/12/24 09:41:51;;;;;;;17.83;5.25;;;8.80;84.60;;;;;;4868487;29;20045;-76
2021/12/24 09:44:17;;;;;;;22.20;5.65;;;8.80;84.50;;;;;;4884014;29;20139;-77
2021/12/24 09:46:43;;;;;;;19.35;5.78;;;8.80;84.60;;;;;;4870814;29;20052;-76
2021/12/24 09:49:10;;;;;;;20.75;5.40;;;8.80;84.60;;;;;;4878339;29;20496;-76
2021/12/24 09:51:38;;;;;;;23.95;7.05;;;8.80;84.50;;;;;;4894648;29;20071;-75
2021/12/24 09:54:10;;;;;;;18.80;5.13;;;8.90;84.60;;;;;;4893746;29;20037;-76
2021/12/24 09:56:36;;;;;;;24.35;5.68;;;8.80;84.60;;;;;;4903561;29;20053;-77
2021/12/24 09:59:02;;;;;;;15.23;4.72;;;8.80;84.50;;;;;;4898628;29;20071;-76
2021/12/24 10:01:43;;;;;;;25.52;5.47;;;8.80;84.50;;;;;;4905431;29;20072;-75
2021/12/24 10:04:18;;;;;;;21.17;5.50;;;8.90;84.60;;;;;;4879132;29;20477;-76
2021/12/24 10:06:51;;;;;;;21.08;5.80;;;8.90;84.60;;;;;;4883129;29;20472;-76
2021/12/24 10:09:17;;;;;;;17.60;5.53;;;8.90;84.60;;;;;;4864936;29;20049;-76
2021/12/24 10:11:49;;;;;;;22.30;5.50;;;8.90;84.50;;;;;;4901806;29;20380;-75
2021/12/24 10:14:20;;;;;;;27.42;6.20;;;8.90;84.50;;;;;;4901330;29;20063;-75
2021/12/24 10:16:49;;;;;;;18.55;5.63;;;8.90;84.50;;;;;;4903449;29;20051;-75
2021/12/24 10:19:15;;;;;;;14.27;4.55;;;8.90;84.80;;;;;;4866071;29;20465;-73
2021/12/24 10:21:44;;;;;;;22.20;6.30;;;8.90;84.40;;;;;;4894476;29;20392;-73
2021/12/24 10:24:18;;;;;;;19.15;6.13;;;8.90;84.40;;;;;;4893292;29;20049;-74
2021/12/24 10:26:48;;;;;;;18.23;5.10;;;8.90;84.40;;;;;;4885911;29;20059;-73
2021/12/24 10:29:19;;;;;;;18.75;5.72;;;8.90;84.30;;;;;;4874014;29;20052;-74
2021/12/24 10:31:48;;;;;;;23.63;5.50;;;9.00;84.30;;;;;;4903146;29;20048;-74
2021/12/24 10:34:29;;;;;;;20.23;6.07;;;8.90;84.20;;;;;;4884627;29;20045;-73
2021/12/24 10:37:02;;;;;;;14.15;5.15;;;8.90;84.20;;;;;;4885241;29;20049;-74
2021/12/24 10:39:29;;;;;;;23.95;5.22;;;8.90;84.20;;;;;;4862193;29;20061;-74
2021/12/24 10:41:57;;;;;;;25.67;6.10;;;8.90;84.00;;;;;;4881655;29;20773;-74
2021/12/24 10:44:29;;;;;;;21.08;5.78;;;8.90;84.00;;;;;;4885855;29;20060;-74
2021/12/24 10:47:05;;;;;;;19.23;5.70;;;9.00;84.10;;;;;;4868602;29;21347;-73
2021/12/24 10:54:57;;;;;;;24.10;6.38;;;8.90;83.80;;;;;;4881811;29;20437;-73
2021/12/24 10:57:32;;;;;;;19.13;5.72;;;9.00;83.90;;;;;;4856932;29;20053;-74
2021/12/24 11:00:03;;;;;;;19.83;5.32;;;9.00;83.80;;;;;;4877169;29;20092;-75
2021/12/24 11:02:31;;;;;;;17.83;5.70;;;8.90;83.80;;;;;;4878259;29;20119;-75
2021/12/24 11:04:57;;;;;;;19.42;5.60;;;8.90;83.70;;;;;;4877458;29;20161;-75
2021/12/24 11:07:40;;;;;;;19.52;5.82;;;9.00;83.70;;;;;;4881003;29;20048;-74
2021/12/24 11:10:19;;;;;;;17.85;4.70;;;9.00;83.80;;;;;;4874709;29;20188;-75
2021/12/24 11:13:10;;;;;;;14.07;5.03;;;9.00;83.80;;;;;;4859062;29;20457;-74
2021/12/24 11:15:48;;;;;;;14.90;4.30;;;8.90;83.70;;;;;;4877365;29;20053;-74
2021/12/24 11:18:15;;;;;;;14.63;4.78;;;9.00;83.80;;;;;;4897892;29;20131;-77
2021/12/24 11:20:41;;;;;;;12.82;4.03;;;8.90;83.60;;;;;;4885804;29;20523;-74
2021/12/24 11:23:17;;;;;;;11.95;3.67;;;9.00;83.70;;;;;;4892679;29;20583;-74
2021/12/24 11:25:55;;;;;;;5.55;1.98;;;8.90;83.60;;;;;;4884208;29;20057;-74
2021/12/24 11:28:23;;;;;;;4.00;1.65;;;8.90;83.60;;;;;;4878813;29;20068;-74
2021/12/24 11:31:11;;;;;;;5.30;1.60;;;8.90;83.30;;;;;;4888366;29;20485;-74
2021/12/24 11:33:39;;;;;;;2.72;1.25;;;8.90;83.10;;;;;;4880013;29;20080;-75
2021/12/24 11:36:11;;;;;;;3.67;1.45;;;8.90;82.80;;;;;;4885416;29;20067;-74
2021/12/24 11:38:43;;;;;;;1.30;0.82;;;8.80;82.60;;;;;;4891245;29;20067;-74
2021/12/24 11:41:12;;;;;;;1.25;0.75;;;8.80;82.40;;;;;;4872637;29;20213;-74
2021/12/24 11:43:52;;;;;;;1.63;0.80;;;8.80;82.20;;;;;;4873964;29;20053;-75
2021/12/24 11:46:20;;;;;;;1.65;0.90;;;8.80;82.00;;;;;;4882668;29;20514;-74
2021/12/24 11:48:49;;;;;;;1.70;0.90;;;8.70;81.60;;;;;;4890992;29;20105;-74
2021/12/24 11:51:27;;;;;;;2.55;0.90;;;8.70;81.50;;;;;;4876975;29;20064;-74
2021/12/24 11:53:58;;;;;;;0.90;0.60;;;8.70;81.50;;;;;;4896518;29;20048;-75
2021/12/24 11:56:24;;;;;;;1.33;0.77;;;8.70;81.40;;;;;;4892163;29;20057;-75
2021/12/24 11:58:56;;;;;;;0.73;0.55;;;8.60;81.00;;;;;;4893869;29;20111;-75
2021/12/24 12:01:25;;;;;;;1.45;0.90;;;8.50;80.60;;;;;;4886144;29;20060;-75
2021/12/24 12:03:55;;;;;;;0.80;0.77;;;8.50;80.50;;;;;;4893946;29;20044;-75
2021/12/24 12:06:23;;;;;;;0.90;0.60;;;8.40;80.50;;;;;;4893195;29;20056;-74
2021/12/24 12:08:58;;;;;;;2.17;0.98;;;8.40;80.60;;;;;;4895892;29;20049;-75
2021/12/24 12:11:43;;;;;;;1.30;0.80;;;8.30;80.60;;;;;;4890812;29;20048;-76
2021/12/24 12:14:14;;;;;;;1.10;0.70;;;8.30;80.60;;;;;;4886237;29;20490;-76
2021/12/24 12:16:39;;;;;;;1.10;0.80;;;8.30;80.70;;;;;;4876838;29;20060;-76
2021/12/24 12:19:15;;;;;;;1.08;0.80;;;8.30;80.60;;;;;;4892650;29;20064;-75
2021/12/24 12:35:35;;;;;;;1.20;0.80;;;8.10;80.60;;;;;;4469130;29;20059;-74
2021/12/24 12:38:01;;;;;;;2.15;1.20;;;8.10;80.80;;;;;;4888202;29;20052;-74
2021/12/24 12:40:30;;;;;;;1.40;0.90;;;8.10;80.80;;;;;;4888498;29;20479;-74
2021/12/24 12:43:02;;;;;;;1.10;0.80;;;8.20;80.90;;;;;;4914981;29;20063;-74
2021/12/24 12:45:35;;;;;;;3.30;1.58;;;8.20;80.90;;;;;;4909534;29;20044;-74
2021/12/24 12:48:04;;;;;;;4.60;2.28;;;8.20;81.40;;;;;;4915361;29;20071;-74
2021/12/24 12:50:30;;;;;;;1.77;1.20;;;8.20;81.10;;;;;;4898197;29;20048;-74
2021/12/24 12:53:28;;;;;;;1.75;1.13;;;8.30;81.20;;;;;;4909603;29;20056;-74
2021/12/24 12:56:12;;;;;;;1.80;1.10;;;8.30;81.10;;;;;;4910490;29;20091;-74
2021/12/24 12:58:39;;;;;;;3.63;1.60;;;8.30;81.00;;;;;;4915659;29;20055;-74
2021/12/24 13:01:14;;;;;;;2.13;1.17;;;8.30;80.90;;;;;;4916089;29;20044;-74
2021/12/24 13:03:55;;;;;;;;;;;8.30;80.60;;;;;;4914502;29;20073;-74
2021/12/24 13:06:23;;;;;;;1.73;1.10;;;8.30;80.00;;;;;;4914037;29;19926;-74
2021/12/24 13:08:49;;;;;;;2.55;1.65;;;8.30;80.40;;;;;;4915866;29;20551;-74
2021/12/24 13:11:20;;;;;;;1.98;1.17;;;8.30;80.20;;;;;;4914730;29;20207;-74
2021/12/24 13:13:56;;;;;;;1.35;1.00;;;8.40;80.20;;;;;;4915137;29;20048;-74
2021/12/24 13:16:29;;;;;;;1.55;1.05;;;8.30;80.00;;;;;;4914637;29;20047;-75
2021/12/24 13:19:04;;;;;;;1.17;0.90;;;8.30;79.70;;;;;;4914361;29;20571;-73
2021/12/24 13:24:16;;;;;;;0.82;0.80;;;8.30;79.10;;;;;;4894482;29;20568;-73
2021/12/24 13:26:43;;;;;;;1.25;0.90;;;8.30;79.00;;;;;;4885201;29;20108;-73
2021/12/24 13:29:16;;;;;;;1.95;1.20;;;8.20;78.60;;;;;;4889455;29;20498;-73
2021/12/24 13:31:49;;;;;;;1.85;1.30;;;8.30;78.60;;;;;;4887247;29;20057;-73
2021/12/24 13:34:16;;;;;;;1.90;1.10;;;8.30;78.80;;;;;;4875197;29;20064;-73
2021/12/24 13:36:42;;;;;;;2.53;1.27;;;8.30;78.90;;;;;;4879421;29;20071;-77
2021/12/24 13:39:16;;;;;;;2.38;1.60;;;8.30;79.00;;;;;;4879887;29;20547;-73
2021/12/24 13:41:45;;;;;;;2.05;1.55;;;8.40;79.10;;;;;;4892754;29;20132;-72
2021/12/24 13:44:26;;;;;;;1.95;1.42;;;8.30;79.10;;;;;;4896141;29;20045;-73
2021/12/24 13:47:10;;;;;;;1.95;1.40;;;8.40;79.20;;;;;;4896845;29;20063;-73
2021/12/24 13:50:05;;;;;;;2.60;1.70;;;8.40;79.20;;;;;;4878725;29;20049;-72
2021/12/24 13:55:30;;;;;;;2.95;1.88;;;8.40;79.30;;;;;;4895389;29;20052;-73
2021/12/24 13:58:17;;;;;;;3.13;1.52;;;8.40;79.30;;;;;;4872298;29;20052;-73
2021/12/24 14:00:50;;;;;;;2.17;1.58;;;8.50;79.30;;;;;;4862379;29;20065;-73
2021/12/24 14:03:16;;;;;;;2.38;1.50;;;8.50;79.30;;;;;;4887507;29;20051;-72
2021/12/24 14:05:46;;;;;;;2.08;1.58;;;8.40;79.20;;;;;;4892143;29;20056;-72
2021/12/24 14:08:15;;;;;;;2.17;1.40;;;8.50;79.20;;;;;;4878224;29;20057;-73
2021/12/24 14:10:42;;;;;;;2.83;1.60;;;8.50;79.10;;;;;;4879029;29;20067;-73
2021/12/24 14:13:19;;;;;;;2.80;1.50;;;8.50;78.90;;;;;;4878795;29;20108;-72
2021/12/24 14:23:29;;;;;;;2.58;1.58;;;8.50;78.70;;;;;;4895417;29;20471;-72
2021/12/24 14:25:57;;;;;;;2.53;2.10;;;8.50;78.70;;;;;;4895517;29;20076;-73
2021/12/24 14:28:24;;;;;;;3.10;1.83;;;8.50;78.60;;;;;;4895672;29;20040;-72
2021/12/24 14:31:01;;;;;;;2.92;1.80;;;8.50;78.60;;;;;;4895404;29;20044;-73
2021/12/24 14:33:27;;;;;;;2.13;1.67;;;8.50;78.60;;;;;;4872293;29;20152;-73
2021/12/24 14:35:53;;;;;;;2.75;2.03;;;8.50;78.60;;;;;;4895525;29;20054;-72
2021/12/24 14:38:24;;;;;;;2.60;1.90;;;8.50;78.60;;;;;;4877932;29;20068;-73
2021/12/24 14:40:58;;;;;;;2.47;2.00;;;8.50;78.50;;;;;;4878365;29;20063;-72
2021/12/24 14:43:25;;;;;;;2.75;2.00;;;8.50;78.50;;;;;;4895480;29;20464;-73
2021/12/24 14:45:52;;;;;;;4.55;3.55;;;8.50;78.60;;;;;;4878789;29;20435;-73
2021/12/24 14:48:25;;;;;;;4.28;3.42;;;8.50;78.50;;;;;;4894783;29;20048;-73
2021/12/24 14:51:04;;;;;;;6.25;4.57;;;8.50;78.50;;;;;;4895092;29;20075;-73
2021/12/24 14:53:36;;;;;;;4.13;3.40;;;8.50;78.50;;;;;;4878107;29;20056;-73
2021/12/24 14:56:09;;;;;;;3.60;3.13;;;8.50;78.50;;;;;;4879006;29;20452;-73
2021/12/24 14:58:39;;;;;;;4.18;3.42;;;8.50;78.50;;;;;;4893687;29;20052;-73
2021/12/24 15:27:02;;;;;;;2.58;2.00;;;8.30;78.50;;;;;;5652488;23;20197;-75
2021/12/24 15:29:28;;;;;;;3.45;2.60;;;8.30;78.50;;;;;;4803697;29;20574;-72
2021/12/24 15:31:54;;;;;;;3.70;2.70;;;8.30;78.50;;;;;;4794412;29;20065;-72
2021/12/24 15:34:20;;;;;;;3.72;2.65;;;8.30;78.40;;;;;;4797290;29;20097;-72
2021/12/24 15:36:46;;;;;;;2.83;1.95;;;8.30;78.40;;;;;;4822454;29;20106;-73
2021/12/24 15:39:12;;;;;;;2.63;1.95;;;8.30;78.40;;;;;;4803900;29;20161;-73